Airfield :







YOU CAN JOIN US ON...

 
LOGIN :

Register | Disclaimer

   EN    FR    IT 

 









Legend :    VFR   Marginal VFR   IFR   Intensive IFR   Very Intensive IFR
Visi :
Ceiling :
>= 8 km
>= 3000ft
5 to 8 km
1000 to 3000 ft
1500m to 5 km
500 to 1000 ft
800 to 1500m
200 to 500 ft
< 800m
< 200 ft
Symbols :   Thunderstorms  Fog  Heavy snow  Heavy precipitations  Wind > 20 kt







- Airport Elevation : 477 ft
- IATA code : YHZ


CYHZ - Halifax Stanfield Int.

CURRENT METAR :
  • 221400Z 15005KT 1SM R23/P6000FT/N R14/P6000FT/N -RA BR BKN002 OVC010 13/13 A3019 RMK ST7SC1 SLP226

EXPIRED METARs :
  • 221358Z 15004KT 1SM R23/P6000FT/N R14/P6000FT/N -RA BR BKN002 OVC010 13/13 A3019 RMK ST7SC1 SLP226
  • 221300Z 18007KT 1SM R23/P6000FT/N R14/P6000FT/N BR BKN002 OVC015 13/13 A3020 RMK ST7SC1 VIS LWR N-E SLP229
  • 221248Z 18008KT 2SM BR BKN003 OVC020 13/13 A3020 RMK ST6SC2 SLP229
  • 221224Z 17008KT 2SM -RA BR BKN003 OVC022 12/12 A3019 RMK SF6SC2 SLP228
  • 221200Z 17006KT 1SM R23/P6000FT/N R14/P6000FT/N -RA BR BKN003 OVC020 12/12 A3020 RMK SF6SC2 SLP231
  • 221138Z 19005KT 1SM R23/P6000FT/N R14/P6000FT/N -RA BR BKN003 OVC020 11/11 A3020 RMK SF5SC3 SLP232

TAF TAF CYHZ
Valid from the 22 at 12:00 until the 23 at 12:00 UTC


221138Z 2212/2312 18008KT 1/4SM FG BKN003 OVC020
TEMPO 2212/2213 2SM -DZ -RA BR OVC004
FM221300 18008KT 1/4SM -RA FG VV001
TEMPO 2213/2303 1SM -DZ BR OVC002
BECMG 2222/2224 10006KT
FM230300 05010KT 1SM -RA BR OVC003 RMK NXT FCST BY 221500Z
CZQM FIR / North America



MET'MAP, your aeronautical weather chart ! - Copyright ORBIFLY December 2007 - Disclaimer

ORBIFLY MET'MAP TEAM :

Programming & Development : Alexandra Zaïnal
Concept & Development : Baudouin d'Aumeries
Co-Development & Prog : Marc-Olivier Méhu
Technical & hardware support : Manuel Goepfert

Contact : metmap@orbifly.com




SOURCES & CREDITS :

   NOAA